createdAt,value
2022-10-06T00:00:17.459Z,969.03
2022-10-06T00:01:12.509Z,969.05
2022-10-06T00:02:07.532Z,969.07
2022-10-06T00:03:02.511Z,969.09
2022-10-06T00:03:57.640Z,969.09
2022-10-06T00:04:52.666Z,969.11
2022-10-06T00:05:47.711Z,969.09
2022-10-06T00:06:42.673Z,969.09
2022-10-06T00:07:37.770Z,969.13
2022-10-06T00:08:32.905Z,969.13
2022-10-06T00:09:28.609Z,969.17
2022-10-06T00:10:23.563Z,969.11
2022-10-06T00:11:18.587Z,969.13
2022-10-06T00:12:13.700Z,969.15
2022-10-06T00:13:08.876Z,969.15
2022-10-06T00:14:03.858Z,969.17
2022-10-06T00:14:58.951Z,969.21
2022-10-06T00:15:54.149Z,969.19
2022-10-06T00:16:49.128Z,969.21
2022-10-06T00:17:44.234Z,969.31
2022-10-06T00:18:39.235Z,969.31
2022-10-06T00:19:34.303Z,969.31
2022-10-06T00:20:29.405Z,969.31
2022-10-06T00:21:24.360Z,969.35
2022-10-06T00:22:19.487Z,969.35
2022-10-06T00:23:14.757Z,969.35
2022-10-06T00:24:09.753Z,969.35
2022-10-06T00:25:05.535Z,969.33
2022-10-06T00:26:00.813Z,969.37
2022-10-06T00:26:56.012Z,969.37
2022-10-06T00:27:51.285Z,969.37
2022-10-06T00:28:46.556Z,969.39
2022-10-06T00:29:41.502Z,969.39
2022-10-06T00:30:36.625Z,969.39
2022-10-06T00:31:31.754Z,969.37
2022-10-06T00:32:26.738Z,969.37
2022-10-06T00:33:21.852Z,969.39
2022-10-06T00:34:16.904Z,969.43
2022-10-06T00:35:11.910Z,969.43
2022-10-06T00:36:06.970Z,969.41
2022-10-06T00:37:02.041Z,969.43
2022-10-06T00:37:57.149Z,969.41
2022-10-06T00:38:52.202Z,969.41
2022-10-06T00:39:47.265Z,969.39
2022-10-06T00:40:42.342Z,969.39
2022-10-06T00:41:37.546Z,969.37
2022-10-06T00:42:32.670Z,969.41
2022-10-06T00:43:27.803Z,969.41
2022-10-06T00:44:22.739Z,969.41
2022-10-06T00:45:17.790Z,969.43
2022-10-06T00:46:12.851Z,969.43
2022-10-06T00:47:07.929Z,969.47
2022-10-06T00:48:03.201Z,969.49
2022-10-06T00:48:58.132Z,969.51
2022-10-06T00:49:56.695Z,969.51
2022-10-06T00:50:51.767Z,969.51
2022-10-06T00:51:46.712Z,969.51
2022-10-06T00:52:41.762Z,969.51
2022-10-06T00:53:36.805Z,969.51
2022-10-06T00:54:31.891Z,969.54
2022-10-06T00:55:26.979Z,969.53
2022-10-06T00:56:22.217Z,969.54
2022-10-06T00:57:17.293Z,969.53
2022-10-06T00:58:12.334Z,969.53
2022-10-06T00:59:07.569Z,969.53
2022-10-06T01:00:02.570Z,969.54
2022-10-06T01:00:57.630Z,969.53
2022-10-06T01:01:52.747Z,969.53
2022-10-06T01:02:47.977Z,969.54
2022-10-06T01:03:43.779Z,969.51
2022-10-06T01:04:39.018Z,969.53
2022-10-06T01:05:34.999Z,969.53
2022-10-06T01:06:30.101Z,969.54
2022-10-06T01:07:25.360Z,969.53
2022-10-06T01:08:21.167Z,969.56
2022-10-06T01:09:16.403Z,969.56
2022-10-06T01:10:11.776Z,969.56
2022-10-06T01:11:08.121Z,969.58
2022-10-06T01:12:03.330Z,969.56
2022-10-06T01:12:59.207Z,969.60
2022-10-06T01:13:54.500Z,969.60
2022-10-06T01:14:49.965Z,969.64
2022-10-06T01:15:45.634Z,969.58
2022-10-06T01:16:40.831Z,969.60
2022-10-06T01:17:36.593Z,969.62
2022-10-06T01:18:32.000Z,969.60
2022-10-06T01:19:27.232Z,969.60
2022-10-06T01:20:22.924Z,969.62
2022-10-06T01:21:18.162Z,969.64
2022-10-06T01:22:13.351Z,969.64
2022-10-06T01:23:09.812Z,969.64
2022-10-06T01:24:05.027Z,969.62
2022-10-06T01:25:00.754Z,969.58
2022-10-06T01:25:55.923Z,969.58
2022-10-06T01:26:51.182Z,969.58
2022-10-06T01:27:47.085Z,969.58
2022-10-06T01:28:42.270Z,969.60
2022-10-06T01:29:37.904Z,969.58
2022-10-06T01:30:33.104Z,969.60
2022-10-06T01:31:28.501Z,969.58
2022-10-06T01:32:24.218Z,969.60
2022-10-06T01:33:19.436Z,969.56
2022-10-06T01:34:14.646Z,969.58
2022-10-06T01:35:10.933Z,969.58
2022-10-06T01:36:06.145Z,969.58
2022-10-06T01:37:01.346Z,969.58
2022-10-06T01:37:56.575Z,969.60
2022-10-06T01:38:52.346Z,969.58
2022-10-06T01:39:47.568Z,969.58
2022-10-06T01:40:43.282Z,969.56
2022-10-06T01:41:38.415Z,969.62
2022-10-06T01:42:33.785Z,969.60
2022-10-06T01:43:29.535Z,969.58
2022-10-06T01:44:24.726Z,969.60
2022-10-06T01:45:19.862Z,969.58
2022-10-06T01:46:16.297Z,969.58
2022-10-06T01:47:11.565Z,969.58
2022-10-06T01:48:07.346Z,969.62
2022-10-06T01:49:02.471Z,969.62
2022-10-06T01:49:57.595Z,969.62
2022-10-06T01:50:53.410Z,969.62
2022-10-06T01:51:48.741Z,969.58
2022-10-06T01:52:44.723Z,969.60
2022-10-06T01:53:39.690Z,969.60
2022-10-06T01:54:35.011Z,969.60
2022-10-06T01:55:30.253Z,969.62
2022-10-06T01:56:25.441Z,969.58
2022-10-06T01:57:20.642Z,969.58
2022-10-06T01:58:15.820Z,969.56
2022-10-06T01:59:11.663Z,969.60
2022-10-06T02:00:06.954Z,969.58
2022-10-06T02:01:02.247Z,969.60
2022-10-06T02:01:58.092Z,969.60
2022-10-06T02:02:53.204Z,969.60
2022-10-06T02:03:48.369Z,969.62
2022-10-06T02:04:43.504Z,969.62
2022-10-06T02:05:38.468Z,969.62
2022-10-06T02:06:33.669Z,969.62
2022-10-06T02:07:28.788Z,969.68
2022-10-06T02:08:23.624Z,969.66
2022-10-06T02:09:18.747Z,969.66
2022-10-06T02:10:13.864Z,969.66
2022-10-06T02:11:08.880Z,969.64
2022-10-06T02:12:04.108Z,969.62
2022-10-06T02:12:59.079Z,969.60
2022-10-06T02:13:54.193Z,969.62
2022-10-06T02:14:49.314Z,969.62
2022-10-06T02:15:44.311Z,969.66
2022-10-06T02:16:39.339Z,969.66
2022-10-06T02:17:34.423Z,969.68
2022-10-06T02:18:29.703Z,969.70
2022-10-06T02:19:24.546Z,969.74
2022-10-06T02:20:19.641Z,969.76
2022-10-06T02:21:14.729Z,969.76
2022-10-06T02:22:09.835Z,969.76
2022-10-06T02:23:04.930Z,969.80
2022-10-06T02:24:00.139Z,969.76
2022-10-06T02:24:55.252Z,969.76
2022-10-06T02:25:50.491Z,969.78
2022-10-06T02:26:45.731Z,969.80
2022-10-06T02:27:40.802Z,969.82
2022-10-06T02:28:35.842Z,969.80
2022-10-06T02:29:30.946Z,969.88
2022-10-06T02:30:25.969Z,969.88
2022-10-06T02:31:21.029Z,969.90
2022-10-06T02:32:15.965Z,969.86
2022-10-06T02:33:11.097Z,969.88
2022-10-06T02:34:06.207Z,969.88
2022-10-06T02:35:01.345Z,969.92
2022-10-06T02:35:56.320Z,969.92
2022-10-06T02:36:51.394Z,969.90
2022-10-06T02:37:46.404Z,969.88
2022-10-06T02:38:41.485Z,969.94
2022-10-06T02:39:36.566Z,969.94
2022-10-06T02:40:31.719Z,969.92
2022-10-06T02:41:26.693Z,969.96
2022-10-06T02:42:21.815Z,969.98
2022-10-06T02:43:16.907Z,969.96
2022-10-06T02:44:12.111Z,969.98
2022-10-06T02:45:07.321Z,970.00
2022-10-06T02:46:02.513Z,970.01
2022-10-06T02:46:57.686Z,970.01
2022-10-06T02:47:52.722Z,970.05
2022-10-06T02:48:47.840Z,970.05
2022-10-06T02:49:42.977Z,970.03
2022-10-06T02:50:38.060Z,970.03
2022-10-06T02:51:33.438Z,970.07
2022-10-06T02:52:28.539Z,970.11
2022-10-06T02:53:23.637Z,970.11
2022-10-06T02:54:18.906Z,970.15
2022-10-06T02:55:13.998Z,970.15
2022-10-06T02:56:09.225Z,970.15
2022-10-06T02:57:04.497Z,970.15
2022-10-06T02:57:59.479Z,970.15
2022-10-06T02:58:54.582Z,970.15
2022-10-06T02:59:49.712Z,970.19
2022-10-06T03:00:44.820Z,970.17
2022-10-06T03:01:39.971Z,970.19
2022-10-06T03:02:35.120Z,970.17
2022-10-06T03:03:30.018Z,970.17
2022-10-06T03:04:25.261Z,970.21
2022-10-06T03:05:20.244Z,970.17
2022-10-06T03:06:15.470Z,970.21
2022-10-06T03:07:10.737Z,970.25
2022-10-06T03:08:05.770Z,970.27
2022-10-06T03:09:00.760Z,970.25
2022-10-06T03:09:55.870Z,970.23
2022-10-06T03:10:50.869Z,970.21
2022-10-06T03:11:45.856Z,970.23
2022-10-06T03:12:40.872Z,970.23
2022-10-06T03:13:35.963Z,970.27
2022-10-06T03:14:30.996Z,970.23
2022-10-06T03:15:25.986Z,970.23
2022-10-06T03:16:21.148Z,970.21
2022-10-06T03:17:16.222Z,970.21
2022-10-06T03:18:11.239Z,970.23
2022-10-06T03:19:06.387Z,970.27
2022-10-06T03:20:01.399Z,970.25
2022-10-06T03:20:58.918Z,970.23
2022-10-06T03:21:53.974Z,970.25
2022-10-06T03:22:49.137Z,970.27
2022-10-06T03:23:44.246Z,970.29
2022-10-06T03:24:39.366Z,970.27
2022-10-06T03:25:34.466Z,970.33
2022-10-06T03:26:29.496Z,970.35
2022-10-06T03:27:24.555Z,970.39
2022-10-06T03:28:19.628Z,970.41
2022-10-06T03:29:14.640Z,970.41
2022-10-06T03:30:09.662Z,970.43
2022-10-06T03:31:04.686Z,970.45
2022-10-06T03:31:59.792Z,970.47
2022-10-06T03:32:54.923Z,970.43
2022-10-06T03:33:50.084Z,970.47
2022-10-06T03:34:45.767Z,970.47
2022-10-06T03:35:41.052Z,970.47
2022-10-06T03:36:36.849Z,970.47
2022-10-06T03:37:32.091Z,970.49
2022-10-06T03:38:27.627Z,970.45
2022-10-06T03:39:23.128Z,970.49
2022-10-06T03:40:18.283Z,970.47
2022-10-06T03:41:13.483Z,970.47
2022-10-06T03:42:09.860Z,970.47
2022-10-06T03:43:04.982Z,970.49
2022-10-06T03:44:00.784Z,970.53
2022-10-06T03:44:55.877Z,970.53
2022-10-06T03:45:50.986Z,970.53
2022-10-06T03:46:47.009Z,970.58
2022-10-06T03:47:42.039Z,970.55
2022-10-06T03:48:37.982Z,970.64
2022-10-06T03:49:33.111Z,970.64
2022-10-06T03:50:28.123Z,970.66
2022-10-06T03:51:23.938Z,970.72
2022-10-06T03:52:23.610Z,970.68
2022-10-06T03:53:15.406Z,970.64
2022-10-06T03:54:09.517Z,970.66
2022-10-06T03:55:05.366Z,970.66
2022-10-06T03:56:00.509Z,970.62
2022-10-06T03:56:55.700Z,970.66
2022-10-06T03:57:51.918Z,970.68
2022-10-06T03:58:47.192Z,970.72
2022-10-06T03:59:43.036Z,970.74
2022-10-06T04:00:38.202Z,970.76
2022-10-06T04:01:33.516Z,970.76
2022-10-06T04:02:29.282Z,970.74
2022-10-06T04:03:24.407Z,970.76
2022-10-06T04:04:20.327Z,970.76
2022-10-06T04:05:15.462Z,970.84
2022-10-06T04:06:10.621Z,970.84
2022-10-06T04:07:06.433Z,970.88
2022-10-06T04:08:01.662Z,970.88
2022-10-06T04:08:57.340Z,970.86
2022-10-06T04:09:52.488Z,970.86
2022-10-06T04:10:47.604Z,970.86
2022-10-06T04:11:43.429Z,970.88
2022-10-06T04:12:38.690Z,970.86
2022-10-06T04:13:34.639Z,970.86
2022-10-06T04:14:29.680Z,970.88
2022-10-06T04:15:24.809Z,970.92
2022-10-06T04:16:20.669Z,970.92
2022-10-06T04:17:15.796Z,970.96
2022-10-06T04:18:11.056Z,970.96
2022-10-06T04:19:07.426Z,970.96
2022-10-06T04:20:02.445Z,971.02
2022-10-06T04:20:58.254Z,971.03
2022-10-06T04:21:53.484Z,971.02
2022-10-06T04:22:48.816Z,971.05
2022-10-06T04:23:44.420Z,971.03
2022-10-06T04:24:39.481Z,971.03
2022-10-06T04:25:34.617Z,971.03
2022-10-06T04:26:29.744Z,971.05
2022-10-06T04:27:24.962Z,971.07
2022-10-06T04:28:19.998Z,971.03
2022-10-06T04:29:15.136Z,971.03
2022-10-06T04:30:10.075Z,971.00
2022-10-06T04:31:05.140Z,971.03
2022-10-06T04:32:00.350Z,971.02
2022-10-06T04:32:55.261Z,971.05
2022-10-06T04:33:50.397Z,971.03
2022-10-06T04:34:45.384Z,971.03
2022-10-06T04:35:40.370Z,971.03
2022-10-06T04:36:35.389Z,971.05
2022-10-06T04:37:30.411Z,971.03
2022-10-06T04:38:25.459Z,971.02
2022-10-06T04:39:20.478Z,971.00
2022-10-06T04:40:15.490Z,971.00
2022-10-06T04:41:10.592Z,971.03
2022-10-06T04:42:05.609Z,971.05
2022-10-06T04:43:02.426Z,971.11
2022-10-06T04:43:57.654Z,971.13
2022-10-06T04:44:52.823Z,971.13
2022-10-06T04:45:47.722Z,971.11
2022-10-06T04:46:44.519Z,971.11
2022-10-06T04:47:37.800Z,971.13
2022-10-06T04:48:33.061Z,971.13
2022-10-06T04:49:28.071Z,971.15
2022-10-06T04:50:23.056Z,971.19
2022-10-06T04:51:18.157Z,971.21
2022-10-06T04:52:13.155Z,971.19
2022-10-06T04:53:08.175Z,971.19
2022-10-06T04:54:03.281Z,971.23
2022-10-06T04:54:58.433Z,971.23
2022-10-06T04:55:53.428Z,971.31
2022-10-06T04:56:48.520Z,971.35
2022-10-06T04:57:43.621Z,971.35
2022-10-06T04:58:38.767Z,971.35
2022-10-06T04:59:34.027Z,971.37
2022-10-06T05:00:29.172Z,971.37
2022-10-06T05:01:24.375Z,971.37
2022-10-06T05:02:19.761Z,971.43
2022-10-06T05:03:14.789Z,971.43
2022-10-06T05:04:11.304Z,971.49
2022-10-06T05:05:06.470Z,971.50
2022-10-06T05:06:02.322Z,971.50
2022-10-06T05:06:57.458Z,971.54
2022-10-06T05:07:52.662Z,971.50
2022-10-06T05:08:48.489Z,971.50
2022-10-06T05:09:43.770Z,971.52
2022-10-06T05:10:39.496Z,971.54
2022-10-06T05:11:34.701Z,971.58
2022-10-06T05:12:30.063Z,971.58
2022-10-06T05:13:25.800Z,971.56
2022-10-06T05:14:21.159Z,971.56
2022-10-06T05:15:16.198Z,971.56
2022-10-06T05:16:12.810Z,971.56
2022-10-06T05:17:07.997Z,971.56
2022-10-06T05:18:03.719Z,971.56
2022-10-06T05:18:58.948Z,971.56
2022-10-06T05:19:54.152Z,971.54
2022-10-06T05:20:49.898Z,971.52
2022-10-06T05:21:45.104Z,971.54
2022-10-06T05:22:41.022Z,971.52
2022-10-06T05:23:36.132Z,971.52
2022-10-06T05:24:31.371Z,971.52
2022-10-06T05:25:27.211Z,971.56
2022-10-06T05:26:22.443Z,971.58
2022-10-06T05:27:17.801Z,971.60
2022-10-06T05:28:14.256Z,971.62
2022-10-06T05:29:09.513Z,971.62
2022-10-06T05:30:05.244Z,971.62
2022-10-06T05:31:00.688Z,971.60
2022-10-06T05:31:56.146Z,971.64
2022-10-06T05:32:51.751Z,971.62
2022-10-06T05:33:47.088Z,971.68
2022-10-06T05:34:42.820Z,971.68
2022-10-06T05:35:38.137Z,971.70
2022-10-06T05:36:33.579Z,971.70
2022-10-06T05:37:29.191Z,971.72
2022-10-06T05:38:24.447Z,971.72
2022-10-06T05:39:19.761Z,971.72
2022-10-06T05:40:16.056Z,971.70
2022-10-06T05:41:11.393Z,971.74
2022-10-06T05:42:07.123Z,971.88
2022-10-06T05:43:02.409Z,971.90
2022-10-06T05:43:57.726Z,971.88
2022-10-06T05:44:53.464Z,971.88
2022-10-06T05:45:48.930Z,971.92
2022-10-06T05:46:44.620Z,971.90
2022-10-06T05:47:39.963Z,971.96
2022-10-06T05:48:35.358Z,971.92
2022-10-06T05:49:31.144Z,971.94
2022-10-06T05:50:26.516Z,971.96
2022-10-06T05:51:22.586Z,972.00
2022-10-06T05:52:18.191Z,972.02
2022-10-06T05:53:13.521Z,972.04
2022-10-06T05:54:09.295Z,972.02
2022-10-06T05:55:04.645Z,972.02
2022-10-06T05:56:00.126Z,972.04
2022-10-06T05:56:55.990Z,972.04
2022-10-06T05:57:51.199Z,972.06
2022-10-06T05:58:47.124Z,972.10
2022-10-06T05:59:42.415Z,972.12
2022-10-06T06:00:37.798Z,972.14
2022-10-06T06:01:33.689Z,972.14
2022-10-06T06:02:29.163Z,972.16
2022-10-06T06:03:24.408Z,972.16
2022-10-06T06:04:23.606Z,972.16
2022-10-06T06:05:19.157Z,972.18
2022-10-06T06:06:14.496Z,972.23
2022-10-06T06:07:10.403Z,972.27
2022-10-06T06:08:05.848Z,972.29
2022-10-06T06:09:01.326Z,972.29
2022-10-06T06:09:57.569Z,972.29
2022-10-06T06:10:52.968Z,972.31
2022-10-06T06:11:48.859Z,972.35
2022-10-06T06:12:44.338Z,972.33
2022-10-06T06:13:39.683Z,972.31
2022-10-06T06:14:35.463Z,972.31
2022-10-06T06:15:30.825Z,972.29
2022-10-06T06:16:26.711Z,972.31
2022-10-06T06:17:22.004Z,972.29
2022-10-06T06:18:17.433Z,972.29
2022-10-06T06:19:13.159Z,972.31
2022-10-06T06:20:08.555Z,972.33
2022-10-06T06:21:03.953Z,972.37
2022-10-06T06:21:59.355Z,972.41
2022-10-06T06:22:54.749Z,972.41
2022-10-06T06:23:51.533Z,972.43
2022-10-06T06:24:46.939Z,972.47
2022-10-06T06:25:42.369Z,972.51
2022-10-06T06:26:38.028Z,972.51
2022-10-06T06:27:33.570Z,972.55
2022-10-06T06:28:29.642Z,972.57
2022-10-06T06:29:24.517Z,972.57
2022-10-06T06:30:19.545Z,972.55
2022-10-06T06:31:19.736Z,972.59
2022-10-06T06:32:11.131Z,972.59
2022-10-06T06:33:05.643Z,972.61
2022-10-06T06:34:00.877Z,972.61
2022-10-06T06:34:56.379Z,972.63
2022-10-06T06:35:51.665Z,972.61
2022-10-06T06:36:47.038Z,972.63
2022-10-06T06:37:43.544Z,972.63
2022-10-06T06:38:38.962Z,972.68
2022-10-06T06:39:34.492Z,972.70
2022-10-06T06:40:33.254Z,972.72
2022-10-06T06:41:28.529Z,972.72
2022-10-06T06:42:23.915Z,972.74
2022-10-06T06:43:19.385Z,972.72
2022-10-06T06:44:14.880Z,972.74
2022-10-06T06:45:11.498Z,972.72
2022-10-06T06:46:07.104Z,972.76
2022-10-06T06:47:02.296Z,972.78
2022-10-06T06:47:57.684Z,972.74
2022-10-06T06:48:53.373Z,972.72
2022-10-06T06:49:48.767Z,972.74
2022-10-06T06:50:44.177Z,972.74
2022-10-06T06:51:39.573Z,972.76
2022-10-06T06:52:34.947Z,972.80
2022-10-06T06:53:30.502Z,972.80
2022-10-06T06:54:25.764Z,972.84
2022-10-06T06:55:21.183Z,972.84
2022-10-06T06:56:16.610Z,972.88
2022-10-06T06:57:11.990Z,972.90
2022-10-06T06:58:07.099Z,972.94
2022-10-06T06:59:02.133Z,972.96
2022-10-06T06:59:57.102Z,972.98
2022-10-06T07:00:52.398Z,973.00
2022-10-06T07:01:47.574Z,973.00
2022-10-06T07:02:42.465Z,973.00
2022-10-06T07:03:57.648Z,973.04
2022-10-06T07:04:36.288Z,973.00
2022-10-06T07:05:30.864Z,972.98
2022-10-06T07:06:28.111Z,972.96
2022-10-06T07:07:21.662Z,973.00
2022-10-06T07:08:17.057Z,973.00
2022-10-06T07:09:12.440Z,972.98
2022-10-06T07:10:07.895Z,972.98
2022-10-06T07:11:03.301Z,972.98
2022-10-06T07:11:58.693Z,972.98
2022-10-06T07:12:54.125Z,973.00
2022-10-06T07:13:49.377Z,973.06
2022-10-06T07:14:44.739Z,973.06
2022-10-06T07:15:40.092Z,973.04
2022-10-06T07:16:35.499Z,973.08
2022-10-06T07:17:31.008Z,973.10
2022-10-06T07:18:26.650Z,973.10
2022-10-06T07:19:24.802Z,973.10
2022-10-06T07:20:17.198Z,973.10
2022-10-06T07:21:12.289Z,973.16
2022-10-06T07:22:07.309Z,973.10
2022-10-06T07:23:02.373Z,973.10
2022-10-06T07:23:57.436Z,973.10
2022-10-06T07:24:52.471Z,973.08
2022-10-06T07:25:47.524Z,973.06
2022-10-06T07:26:42.790Z,973.04
2022-10-06T07:27:37.997Z,973.06
2022-10-06T07:28:33.103Z,973.08
2022-10-06T07:29:28.093Z,973.10
2022-10-06T07:30:23.216Z,973.08
2022-10-06T07:31:18.272Z,973.10
2022-10-06T07:32:13.314Z,973.08
2022-10-06T07:33:08.400Z,973.08
2022-10-06T07:34:03.485Z,973.08
2022-10-06T07:34:58.549Z,973.08
2022-10-06T07:35:53.592Z,973.10
2022-10-06T07:36:48.756Z,973.12
2022-10-06T07:37:44.272Z,973.16
2022-10-06T07:38:39.760Z,973.16
2022-10-06T07:39:35.202Z,973.16
2022-10-06T07:40:30.672Z,973.16
2022-10-06T07:41:26.080Z,973.18
2022-10-06T07:42:21.682Z,973.18
2022-10-06T07:43:16.900Z,973.18
2022-10-06T07:44:11.926Z,973.16
2022-10-06T07:45:07.339Z,973.20
2022-10-06T07:46:02.085Z,973.20
2022-10-06T07:46:57.126Z,973.18
2022-10-06T07:47:52.199Z,973.16
2022-10-06T07:48:47.326Z,973.16
2022-10-06T07:49:42.429Z,973.16
2022-10-06T07:50:37.520Z,973.16
2022-10-06T07:51:34.475Z,973.18
2022-10-06T07:52:29.527Z,973.16
2022-10-06T07:53:24.633Z,973.14
2022-10-06T07:54:22.834Z,973.16
2022-10-06T07:55:15.799Z,973.18
2022-10-06T07:56:09.785Z,973.18
2022-10-06T07:57:04.815Z,973.20
2022-10-06T07:57:59.897Z,973.18
2022-10-06T07:58:55.015Z,973.20
2022-10-06T07:59:50.186Z,973.23
2022-10-06T08:00:46.852Z,973.23
2022-10-06T08:01:42.221Z,973.23
2022-10-06T08:02:38.145Z,973.29
2022-10-06T08:03:33.505Z,973.25
2022-10-06T08:04:29.068Z,973.27
2022-10-06T08:05:24.819Z,973.29
2022-10-06T08:06:20.297Z,973.31
2022-10-06T08:07:16.166Z,973.31
2022-10-06T08:08:11.504Z,973.33
2022-10-06T08:09:06.919Z,973.33
2022-10-06T08:10:02.793Z,973.33
2022-10-06T08:11:00.310Z,973.35
2022-10-06T08:11:53.593Z,973.35
2022-10-06T08:12:48.626Z,973.33
2022-10-06T08:13:43.929Z,973.35
2022-10-06T08:14:38.762Z,973.35
2022-10-06T08:15:33.739Z,973.35
2022-10-06T08:16:28.926Z,973.33
2022-10-06T08:17:24.057Z,973.31
2022-10-06T08:18:41.066Z,973.29
2022-10-06T08:19:15.291Z,973.31
2022-10-06T08:20:09.346Z,973.33
2022-10-06T08:21:04.361Z,973.29
2022-10-06T08:22:04.431Z,973.33
2022-10-06T08:22:59.155Z,973.31
2022-10-06T08:23:53.237Z,973.33
2022-10-06T08:25:05.197Z,973.35
2022-10-06T08:25:44.389Z,973.37
2022-10-06T08:26:38.448Z,973.37
2022-10-06T08:27:33.692Z,973.37
2022-10-06T08:28:28.673Z,973.37
2022-10-06T08:29:23.832Z,973.41
2022-10-06T08:30:19.645Z,973.43
2022-10-06T08:31:14.904Z,973.43
2022-10-06T08:32:11.428Z,973.43
2022-10-06T08:33:07.039Z,973.41
2022-10-06T08:34:02.886Z,973.41
2022-10-06T08:34:58.837Z,973.45
2022-10-06T08:35:53.850Z,973.43
2022-10-06T08:37:08.584Z,973.41
2022-10-06T08:37:46.335Z,973.39
2022-10-06T08:38:41.085Z,973.39
2022-10-06T08:39:36.607Z,973.35
2022-10-06T08:40:32.169Z,973.37
2022-10-06T08:41:28.034Z,973.39
2022-10-06T08:42:23.414Z,973.37
2022-10-06T08:43:18.939Z,973.37
2022-10-06T08:44:15.186Z,973.35
2022-10-06T08:45:10.698Z,973.35
2022-10-06T08:46:06.528Z,973.37
2022-10-06T08:47:02.056Z,973.35
2022-10-06T08:47:57.536Z,973.35
2022-10-06T08:48:53.168Z,973.35
2022-10-06T08:49:48.896Z,973.41
2022-10-06T08:50:44.402Z,973.41
2022-10-06T08:51:39.962Z,973.39
2022-10-06T08:52:35.779Z,973.41
2022-10-06T08:53:31.285Z,973.43
2022-10-06T08:54:26.831Z,973.43
2022-10-06T08:55:23.098Z,973.43
2022-10-06T08:56:18.584Z,973.43
2022-10-06T08:57:14.391Z,973.41
2022-10-06T08:59:05.959Z,973.41
2022-10-06T09:00:01.495Z,973.43
2022-10-06T09:00:57.188Z,973.43
2022-10-06T09:01:52.736Z,973.45
2022-10-06T09:02:48.600Z,973.47
2022-10-06T09:03:44.019Z,973.51
2022-10-06T09:04:39.593Z,973.51
2022-10-06T09:05:35.279Z,973.53
2022-10-06T09:06:30.561Z,973.53
2022-10-06T09:07:26.118Z,973.51
2022-10-06T09:08:22.647Z,973.55
2022-10-06T09:09:18.321Z,973.53
2022-10-06T09:10:13.866Z,973.55
2022-10-06T09:11:09.423Z,973.55
2022-10-06T09:12:05.040Z,973.55
2022-10-06T09:13:00.335Z,973.53
2022-10-06T09:13:56.252Z,973.53
2022-10-06T09:14:51.728Z,973.55
2022-10-06T09:15:47.108Z,973.53
2022-10-06T09:16:42.406Z,973.53
2022-10-06T09:17:37.473Z,973.51
2022-10-06T09:19:03.337Z,973.55
2022-10-06T09:19:32.876Z,973.57
2022-10-06T09:20:23.591Z,973.57
2022-10-06T09:21:18.710Z,973.57
2022-10-06T09:22:13.754Z,973.57
2022-10-06T09:23:08.796Z,973.59
2022-10-06T09:24:03.840Z,973.59
2022-10-06T09:24:58.935Z,973.57
2022-10-06T09:25:54.049Z,973.55
2022-10-06T09:26:49.138Z,973.53
2022-10-06T09:27:44.242Z,973.55
2022-10-06T09:28:39.476Z,973.57
2022-10-06T09:29:34.453Z,973.59
2022-10-06T09:30:29.482Z,973.59
2022-10-06T09:31:24.531Z,973.61
2022-10-06T09:32:19.521Z,973.59
2022-10-06T09:33:14.686Z,973.57
2022-10-06T09:34:09.790Z,973.59
2022-10-06T09:35:04.811Z,973.59
2022-10-06T09:35:59.831Z,973.59
2022-10-06T09:36:57.724Z,973.63
2022-10-06T09:37:52.001Z,973.61
2022-10-06T09:38:46.498Z,973.63
2022-10-06T09:39:42.358Z,973.63
2022-10-06T09:40:37.651Z,973.65
2022-10-06T09:41:33.227Z,973.65
2022-10-06T09:42:28.827Z,973.63
2022-10-06T09:43:24.368Z,973.63
2022-10-06T09:44:20.746Z,973.63
2022-10-06T09:45:15.666Z,973.63
2022-10-06T09:46:11.084Z,973.61
2022-10-06T09:47:07.330Z,973.63
2022-10-06T09:48:02.719Z,973.63
2022-10-06T09:48:58.198Z,973.61
2022-10-06T09:49:54.971Z,973.63
2022-10-06T09:50:50.045Z,973.63
2022-10-06T09:51:45.801Z,973.65
2022-10-06T09:52:41.318Z,973.63
2022-10-06T09:53:37.805Z,973.67
2022-10-06T09:54:32.496Z,973.61
2022-10-06T09:55:28.091Z,973.61
2022-10-06T09:56:23.808Z,973.63
2022-10-06T09:57:19.135Z,973.63
2022-10-06T09:58:14.585Z,973.65
2022-10-06T09:59:10.366Z,973.65
2022-10-06T10:00:05.814Z,973.61
2022-10-06T10:01:01.314Z,973.65
2022-10-06T10:01:57.643Z,973.61
2022-10-06T10:02:53.099Z,973.63
2022-10-06T10:04:08.524Z,973.63
2022-10-06T10:04:48.350Z,973.63
2022-10-06T10:05:42.244Z,973.63
2022-10-06T10:06:36.746Z,973.61
2022-10-06T10:07:32.764Z,973.63
2022-10-06T10:08:28.207Z,973.63
2022-10-06T10:09:23.731Z,973.61
2022-10-06T10:10:19.508Z,973.65
2022-10-06T10:11:14.860Z,973.63
2022-10-06T10:12:10.751Z,973.61
2022-10-06T10:13:06.022Z,973.65
2022-10-06T10:14:01.533Z,973.65
2022-10-06T10:14:57.638Z,973.61
2022-10-06T10:15:52.781Z,973.65
2022-10-06T10:16:52.293Z,973.61
2022-10-06T10:17:45.615Z,973.63
2022-10-06T10:18:40.112Z,973.61
2022-10-06T10:19:35.961Z,973.59
2022-10-06T10:20:31.469Z,973.63
2022-10-06T10:21:26.916Z,973.59
2022-10-06T10:22:22.661Z,973.61
2022-10-06T10:23:18.091Z,973.61
2022-10-06T10:24:13.539Z,973.59
2022-10-06T10:25:09.226Z,973.53
2022-10-06T10:26:04.719Z,973.55
2022-10-06T10:27:00.152Z,973.53
2022-10-06T10:27:55.677Z,973.55
2022-10-06T10:28:52.039Z,973.53
2022-10-06T10:29:47.463Z,973.53
2022-10-06T10:30:43.130Z,973.57
2022-10-06T10:31:38.727Z,973.57
2022-10-06T10:32:34.244Z,973.57
2022-10-06T10:33:29.910Z,973.55
2022-10-06T10:34:25.388Z,973.55
2022-10-06T10:35:21.093Z,973.55
2022-10-06T10:36:16.600Z,973.55
2022-10-06T10:37:12.129Z,973.57
2022-10-06T10:38:12.323Z,973.59
2022-10-06T10:39:04.456Z,973.57
2022-10-06T10:39:59.047Z,973.63
2022-10-06T10:40:54.135Z,973.61
2022-10-06T10:41:49.179Z,973.59
2022-10-06T10:42:44.224Z,973.63
2022-10-06T10:43:39.192Z,973.63
2022-10-06T10:44:34.364Z,973.57
2022-10-06T10:45:29.255Z,973.57
2022-10-06T10:46:24.402Z,973.57
2022-10-06T10:47:19.434Z,973.57
2022-10-06T10:48:14.609Z,973.59
2022-10-06T10:49:09.613Z,973.57
2022-10-06T10:50:04.601Z,973.55
2022-10-06T10:50:59.692Z,973.55
2022-10-06T10:51:54.783Z,973.55
2022-10-06T10:52:49.813Z,973.55
2022-10-06T10:53:44.884Z,973.55
2022-10-06T10:54:42.874Z,973.57
2022-10-06T10:55:38.178Z,973.57
2022-10-06T10:56:33.739Z,973.57
2022-10-06T10:57:29.219Z,973.59
2022-10-06T10:58:25.643Z,973.57
2022-10-06T10:59:21.041Z,973.59
2022-10-06T11:00:16.741Z,973.55
2022-10-06T11:01:12.397Z,973.51
2022-10-06T11:02:07.898Z,973.55
2022-10-06T11:03:03.460Z,973.53
2022-10-06T11:03:58.979Z,973.53
2022-10-06T11:04:54.757Z,973.53
2022-10-06T11:05:50.111Z,973.53
2022-10-06T11:06:45.699Z,973.47
2022-10-06T11:07:41.562Z,973.49
2022-10-06T11:08:36.962Z,973.43
2022-10-06T11:09:32.389Z,973.49
2022-10-06T11:10:28.822Z,973.45
2022-10-06T11:11:24.361Z,973.43
2022-10-06T11:12:20.213Z,973.39
2022-10-06T11:13:15.637Z,973.41
2022-10-06T11:14:11.142Z,973.39
2022-10-06T11:15:07.049Z,973.39
2022-10-06T11:16:02.447Z,973.41
2022-10-06T11:16:58.237Z,973.35
2022-10-06T11:17:53.655Z,973.37
2022-10-06T11:18:49.142Z,973.37
2022-10-06T11:19:45.048Z,973.37
2022-10-06T11:20:40.451Z,973.35
2022-10-06T11:21:35.988Z,973.37
2022-10-06T11:22:32.204Z,973.41
2022-10-06T11:23:27.682Z,973.41
2022-10-06T11:24:23.500Z,973.41
2022-10-06T11:25:19.101Z,973.39
2022-10-06T11:26:14.696Z,973.41
2022-10-06T11:27:10.406Z,973.37
2022-10-06T11:28:05.982Z,973.39
2022-10-06T11:29:01.756Z,973.37
2022-10-06T11:29:57.400Z,973.39
2022-10-06T11:30:52.574Z,973.39
2022-10-06T11:31:48.464Z,973.37